createdAt,value
2023-05-03T00:01:37.607Z,99.90
2023-05-03T00:03:40.432Z,99.90
2023-05-03T00:05:43.280Z,99.90
2023-05-03T00:07:46.683Z,99.90
2023-05-03T00:09:50.020Z,99.90
2023-05-03T00:11:53.418Z,99.90
2023-05-03T00:13:56.222Z,99.90
2023-05-03T00:16:00.602Z,99.90
2023-05-03T00:18:03.386Z,99.90
2023-05-03T00:20:08.145Z,99.90
2023-05-03T00:22:12.842Z,99.90
2023-05-03T00:24:15.667Z,99.90
2023-05-03T00:26:18.416Z,99.90
2023-05-03T00:28:21.310Z,99.90
2023-05-03T00:30:25.656Z,99.90
2023-05-03T00:32:29.772Z,99.90
2023-05-03T00:34:32.578Z,99.90
2023-05-03T00:36:37.069Z,99.90
2023-05-03T00:38:40.062Z,99.90
2023-05-03T00:40:43.131Z,99.90
2023-05-03T00:42:46.449Z,99.90
2023-05-03T00:44:49.231Z,99.90
2023-05-03T00:46:52.160Z,99.90
2023-05-03T00:48:56.402Z,99.90
2023-05-03T00:50:59.332Z,99.90
2023-05-03T00:53:03.100Z,99.90
2023-05-03T00:55:07.280Z,99.90
2023-05-03T00:57:10.067Z,99.90
2023-05-03T00:59:13.979Z,99.90
2023-05-03T01:01:16.885Z,99.90
2023-05-03T01:03:19.712Z,99.90
2023-05-03T01:05:23.947Z,99.90
2023-05-03T01:07:31.892Z,99.90
2023-05-03T01:09:39.530Z,99.90
2023-05-03T01:11:56.002Z,99.90
2023-05-03T01:14:14.944Z,99.90
2023-05-03T01:16:19.829Z,99.90
2023-05-03T01:18:24.490Z,99.90
2023-05-03T01:20:30.894Z,99.90
2023-05-03T01:22:37.936Z,99.90
2023-05-03T01:24:40.772Z,99.90
2023-05-03T01:26:44.881Z,99.90
2023-05-03T01:28:47.984Z,99.90
2023-05-03T01:30:51.083Z,99.90
2023-05-03T01:32:57.122Z,99.90
2023-05-03T01:35:02.917Z,99.90
2023-05-03T01:37:05.870Z,99.90
2023-05-03T01:39:10.511Z,99.90
2023-05-03T01:41:13.851Z,99.90
2023-05-03T01:43:18.284Z,99.90
2023-05-03T01:45:21.167Z,99.90
2023-05-03T01:47:24.032Z,99.90
2023-05-03T01:49:26.868Z,99.90
2023-05-03T01:51:29.632Z,99.90
2023-05-03T01:53:32.399Z,99.90
2023-05-03T01:55:35.147Z,99.90
2023-05-03T01:57:37.962Z,99.90
2023-05-03T01:59:42.121Z,99.90
2023-05-03T02:01:44.873Z,99.90
2023-05-03T02:03:47.647Z,99.90
2023-05-03T02:05:50.420Z,99.90
2023-05-03T02:07:53.226Z,99.90
2023-05-03T02:09:56.019Z,99.90
2023-05-03T02:11:58.779Z,99.90
2023-05-03T02:14:01.590Z,99.90
2023-05-03T02:16:05.970Z,99.90
2023-05-03T02:18:09.635Z,99.90
2023-05-03T02:20:12.793Z,99.90
2023-05-03T02:22:15.566Z,99.90
2023-05-03T02:24:19.928Z,99.90
2023-05-03T02:26:22.729Z,99.90
2023-05-03T02:28:25.491Z,99.90
2023-05-03T02:30:28.277Z,99.90
2023-05-03T02:32:32.390Z,99.90
2023-05-03T02:34:35.193Z,99.90
2023-05-03T02:36:38.041Z,99.90
2023-05-03T02:38:40.873Z,99.90
2023-05-03T02:40:43.625Z,99.90
2023-05-03T02:42:46.388Z,99.90
2023-05-03T02:44:49.161Z,99.90
2023-05-03T02:46:51.905Z,99.90
2023-05-03T02:48:55.993Z,99.90
2023-05-03T02:50:58.722Z,99.90
2023-05-03T02:53:01.642Z,99.90
2023-05-03T02:55:05.570Z,99.90
2023-05-03T02:57:08.316Z,99.90
2023-05-03T02:59:11.795Z,99.90
2023-05-03T03:01:14.626Z,99.90
2023-05-03T03:03:17.535Z,99.90
2023-05-03T03:05:21.925Z,99.90
2023-05-03T03:07:24.735Z,99.90
2023-05-03T03:09:27.502Z,99.90
2023-05-03T03:11:30.310Z,99.90
2023-05-03T03:13:33.164Z,99.90
2023-05-03T03:15:35.953Z,99.90
2023-05-03T03:17:39.739Z,99.90
2023-05-03T03:19:42.577Z,99.90
2023-05-03T03:21:46.679Z,99.90
2023-05-03T03:23:49.470Z,99.90
2023-05-03T03:25:52.231Z,99.90
2023-05-03T03:27:55.024Z,99.90
2023-05-03T03:29:57.806Z,99.90
2023-05-03T03:32:00.595Z,99.90
2023-05-03T03:34:03.379Z,99.90
2023-05-03T03:36:07.792Z,99.90
2023-05-03T03:38:11.906Z,99.90
2023-05-03T03:40:14.938Z,99.90
2023-05-03T03:42:19.108Z,99.90
2023-05-03T03:44:22.502Z,99.90
2023-05-03T03:46:25.832Z,99.90
2023-05-03T03:48:28.719Z,99.90
2023-05-03T03:50:31.488Z,99.90
2023-05-03T03:52:34.242Z,99.90
2023-05-03T03:54:38.378Z,99.90
2023-05-03T03:56:41.144Z,99.90
2023-05-03T03:58:43.929Z,99.90
2023-05-03T04:00:46.687Z,99.90
2023-05-03T04:02:49.671Z,99.90
2023-05-03T04:04:53.184Z,99.90
2023-05-03T04:06:55.960Z,99.90
2023-05-03T04:08:58.744Z,99.90
2023-05-03T04:11:03.281Z,99.90
2023-05-03T04:13:06.040Z,99.90
2023-05-03T04:15:10.124Z,99.90
2023-05-03T04:17:12.994Z,99.90
2023-05-03T04:19:15.792Z,99.90
2023-05-03T04:21:19.766Z,99.90
2023-05-03T04:23:22.543Z,99.90
2023-05-03T04:25:25.688Z,99.90
2023-05-03T04:27:30.134Z,99.90
2023-05-03T04:29:33.028Z,99.90
2023-05-03T04:31:35.777Z,99.90
2023-05-03T04:33:38.631Z,99.90
2023-05-03T04:35:41.480Z,99.90
2023-05-03T04:37:44.243Z,99.90
2023-05-03T04:39:47.132Z,99.90
2023-05-03T04:41:49.920Z,99.90
2023-05-03T04:43:54.331Z,99.90
2023-05-03T04:45:57.482Z,99.90
2023-05-03T04:48:00.457Z,99.90
2023-05-03T04:50:03.976Z,99.90
2023-05-03T04:52:07.023Z,99.90
2023-05-03T04:54:09.797Z,99.90
2023-05-03T04:56:12.627Z,99.90
2023-05-03T04:58:15.458Z,99.90
2023-05-03T05:00:21.285Z,99.90
2023-05-03T05:02:24.439Z,99.90
2023-05-03T05:04:27.261Z,99.90
2023-05-03T05:06:30.051Z,99.90
2023-05-03T05:08:32.858Z,99.90
2023-05-03T05:10:38.750Z,99.90
2023-05-03T05:12:41.763Z,99.90
2023-05-03T05:14:44.992Z,99.90
2023-05-03T05:16:49.344Z,99.90
2023-05-03T05:18:52.398Z,99.90
2023-05-03T05:20:55.169Z,99.90
2023-05-03T05:22:57.929Z,99.90
2023-05-03T05:25:00.693Z,99.90
2023-05-03T05:27:04.720Z,99.90
2023-05-03T05:29:07.520Z,99.90
2023-05-03T05:31:10.397Z,99.90
2023-05-03T05:33:16.011Z,99.90
2023-05-03T05:35:20.172Z,99.90
2023-05-03T05:37:23.317Z,99.90
2023-05-03T05:39:26.207Z,99.90
2023-05-03T05:41:29.281Z,99.90
2023-05-03T05:43:32.174Z,99.90
2023-05-03T05:45:35.435Z,99.90
2023-05-03T05:47:38.249Z,99.90
2023-05-03T05:49:42.372Z,99.90
2023-05-03T05:51:45.890Z,99.90
2023-05-03T05:53:48.692Z,99.90
2023-05-03T05:55:51.455Z,99.90
2023-05-03T05:57:54.217Z,99.90
2023-05-03T05:59:57.220Z,99.90
2023-05-03T06:02:00.340Z,99.90
2023-05-03T06:04:03.725Z,99.90
2023-05-03T06:06:08.472Z,99.90
2023-05-03T06:08:11.513Z,99.90
2023-05-03T06:10:14.298Z,99.90
2023-05-03T06:12:17.088Z,99.90
2023-05-03T06:14:20.717Z,99.90
2023-05-03T06:16:23.633Z,99.90
2023-05-03T06:18:26.431Z,99.90
2023-05-03T06:20:29.234Z,99.90
2023-05-03T06:22:33.356Z,99.90
2023-05-03T06:24:36.153Z,99.90
2023-05-03T06:26:38.985Z,99.90
2023-05-03T06:28:41.806Z,99.90
2023-05-03T06:30:49.766Z,99.90
2023-05-03T06:32:52.668Z,99.90
2023-05-03T06:34:55.806Z,99.90
2023-05-03T06:36:58.598Z,99.90
2023-05-03T06:39:04.594Z,99.90
2023-05-03T06:41:07.343Z,99.90
2023-05-03T06:43:10.123Z,99.90
2023-05-03T06:45:13.111Z,99.90
2023-05-03T06:47:16.257Z,99.90
2023-05-03T06:49:19.055Z,99.90
2023-05-03T06:51:27.244Z,99.90
2023-05-03T06:53:30.033Z,99.90
2023-05-03T06:55:34.254Z,99.90
2023-05-03T06:57:37.022Z,99.90
2023-05-03T06:59:39.801Z,99.90
2023-05-03T07:01:42.662Z,99.90
2023-05-03T07:03:45.660Z,99.90
2023-05-03T07:05:49.266Z,99.90
2023-05-03T07:07:52.044Z,99.90
2023-05-03T07:09:54.846Z,99.90
2023-05-03T07:11:58.957Z,99.90
2023-05-03T07:14:01.843Z,99.90
2023-05-03T07:16:05.277Z,99.90
2023-05-03T07:18:08.977Z,99.90
2023-05-03T07:20:12.745Z,99.90
2023-05-03T07:22:15.632Z,99.90
2023-05-03T07:24:19.084Z,93.40
2023-05-03T07:26:21.864Z,91.10
2023-05-03T07:28:26.402Z,87.30
2023-05-03T07:30:29.472Z,63.70
2023-05-03T07:32:33.105Z,57.50
2023-05-03T07:34:36.205Z,63.20
2023-05-03T07:36:39.779Z,55.00
2023-05-03T07:38:42.607Z,57.10
2023-05-03T07:40:45.570Z,53.70
2023-05-03T07:42:48.394Z,44.70
2023-05-03T07:44:53.458Z,30.90
2023-05-03T07:46:56.226Z,34.80
2023-05-03T07:48:59.623Z,39.80
2023-05-03T07:51:04.025Z,38.10
2023-05-03T07:53:06.793Z,32.90
2023-05-03T07:55:10.091Z,43.10
2023-05-03T07:57:13.554Z,29.90
2023-05-03T07:59:16.414Z,30.10
2023-05-03T08:01:21.105Z,30.30
2023-05-03T08:03:24.199Z,31.10
2023-05-03T08:05:27.299Z,31.40
2023-05-03T08:07:30.567Z,31.50
2023-05-03T08:09:33.354Z,32.20
2023-05-03T08:11:36.739Z,23.20
2023-05-03T08:13:39.574Z,22.90
2023-05-03T08:15:42.423Z,15.90
2023-05-03T08:17:46.806Z,15.90
2023-05-03T08:19:49.687Z,8.40
2023-05-03T08:21:54.465Z,12.10
2023-05-03T08:23:57.254Z,10.70
2023-05-03T08:26:00.312Z,8.00
2023-05-03T08:28:03.091Z,6.70
2023-05-03T08:30:07.207Z,2.80
2023-05-03T08:32:10.725Z,1.00
2023-05-03T08:34:14.849Z,1.00
2023-05-03T08:36:17.657Z,1.00
2023-05-03T08:38:20.515Z,1.00
2023-05-03T08:40:23.967Z,1.00
2023-05-03T08:42:26.939Z,1.00
2023-05-03T08:44:30.474Z,1.00
2023-05-03T08:46:37.085Z,1.00
2023-05-03T08:48:39.958Z,1.00
2023-05-03T08:50:44.082Z,1.00
2023-05-03T08:52:46.931Z,1.00
2023-05-03T08:54:50.314Z,1.00
2023-05-03T08:56:53.106Z,1.00
2023-05-03T08:58:55.903Z,1.00
2023-05-03T09:00:58.669Z,1.00
2023-05-03T09:03:01.519Z,1.00
2023-05-03T09:05:05.816Z,1.00
2023-05-03T09:07:10.401Z,1.00
2023-05-03T09:09:14.318Z,1.00
2023-05-03T09:11:24.108Z,1.00
2023-05-03T09:13:31.849Z,1.00
2023-05-03T09:15:34.821Z,1.00
2023-05-03T09:17:37.641Z,1.00
2023-05-03T09:19:50.596Z,1.00
2023-05-03T09:21:53.415Z,1.00
2023-05-03T09:23:57.704Z,1.00
2023-05-03T09:26:01.029Z,1.00
2023-05-03T09:28:03.998Z,1.00
2023-05-03T09:30:18.584Z,1.00
2023-05-03T09:32:22.050Z,1.00
2023-05-03T09:34:24.964Z,1.00
2023-05-03T09:36:28.257Z,1.00
2023-05-03T09:38:31.760Z,1.00
2023-05-03T09:40:35.950Z,1.00
2023-05-03T09:42:41.103Z,1.00
2023-05-03T09:44:44.955Z,1.00
2023-05-03T09:47:03.580Z,1.00
2023-05-03T09:49:06.793Z,1.00
2023-05-03T09:51:10.088Z,1.00
2023-05-03T09:53:12.962Z,1.00
2023-05-03T09:55:17.418Z,1.00
2023-05-03T09:57:21.525Z,1.00
2023-05-03T09:59:24.449Z,1.00
2023-05-03T10:01:27.283Z,1.00
2023-05-03T10:03:33.740Z,1.00
2023-05-03T10:05:40.735Z,1.00
2023-05-03T10:07:43.531Z,1.00
2023-05-03T10:09:47.328Z,1.00
2023-05-03T10:11:52.756Z,1.00
2023-05-03T10:13:56.992Z,1.00
2023-05-03T10:16:01.411Z,1.00
2023-05-03T10:18:05.153Z,1.00
2023-05-03T10:20:11.569Z,1.00
2023-05-03T10:22:14.329Z,1.00
2023-05-03T10:24:17.542Z,1.00
2023-05-03T10:26:20.505Z,1.00
2023-05-03T10:28:23.363Z,1.00
2023-05-03T10:30:32.566Z,1.00
2023-05-03T10:32:36.048Z,1.00
2023-05-03T10:34:40.352Z,1.00
2023-05-03T10:36:49.730Z,1.00
2023-05-03T10:38:53.767Z,1.00
2023-05-03T10:40:56.701Z,1.00
2023-05-03T10:43:00.709Z,1.00
2023-05-03T10:45:04.191Z,1.00
2023-05-03T10:47:15.983Z,1.00
2023-05-03T10:49:19.816Z,1.00
2023-05-03T10:51:43.090Z,1.00
2023-05-03T10:53:45.978Z,1.00
2023-05-03T10:56:02.588Z,1.00
2023-05-03T10:58:05.378Z,1.00
2023-05-03T11:00:13.585Z,1.00
2023-05-03T11:02:18.445Z,1.00
2023-05-03T11:04:42.806Z,1.00
2023-05-03T11:06:46.511Z,1.00
2023-05-03T11:08:49.536Z,1.00
2023-05-03T11:10:58.041Z,1.00
2023-05-03T11:13:00.843Z,1.00
2023-05-03T11:15:03.853Z,1.00
2023-05-03T11:17:06.821Z,1.00
2023-05-03T11:19:10.950Z,1.00
2023-05-03T11:21:13.872Z,1.00
2023-05-03T11:23:16.735Z,1.00
2023-05-03T11:25:19.657Z,1.00
2023-05-03T11:27:25.050Z,1.00
2023-05-03T11:29:28.269Z,1.00
2023-05-03T11:31:31.086Z,1.00
2023-05-03T11:33:35.115Z,1.00
2023-05-03T11:35:39.587Z,1.00
2023-05-03T11:37:42.870Z,1.00
2023-05-03T11:39:47.437Z,1.00
2023-05-03T11:42:04.277Z,1.00
2023-05-03T11:44:15.959Z,1.00
2023-05-03T11:46:22.078Z,1.00
2023-05-03T11:48:25.953Z,1.00
2023-05-03T11:50:29.440Z,1.00
2023-05-03T11:52:33.559Z,1.00
2023-05-03T11:54:37.516Z,1.00
2023-05-03T11:56:40.327Z,1.00
2023-05-03T11:59:01.163Z,1.00
2023-05-03T12:01:05.858Z,1.00
2023-05-03T12:03:10.680Z,1.00
2023-05-03T12:05:14.328Z,1.00
2023-05-03T12:07:21.015Z,1.00
2023-05-03T12:09:27.516Z,1.00
2023-05-03T12:11:32.828Z,1.00
2023-05-03T12:13:38.682Z,1.00
2023-05-03T12:15:43.682Z,1.00
2023-05-03T12:17:49.960Z,1.00
2023-05-03T12:20:12.012Z,1.00
2023-05-03T12:22:25.940Z,1.00
2023-05-03T12:24:33.356Z,1.00
2023-05-03T12:26:38.040Z,1.00
2023-05-03T12:28:40.943Z,1.00
2023-05-03T12:30:45.767Z,1.00
2023-05-03T12:32:49.847Z,1.00
2023-05-03T12:34:57.136Z,1.00
2023-05-03T12:37:04.447Z,1.00
2023-05-03T12:39:10.899Z,1.00
2023-05-03T12:41:21.593Z,1.00
2023-05-03T12:43:37.010Z,1.00
2023-05-03T12:45:40.839Z,1.00
2023-05-03T12:47:44.570Z,1.00
2023-05-03T12:49:50.060Z,1.00
2023-05-03T12:52:24.016Z,1.00
2023-05-03T12:54:27.164Z,1.00
2023-05-03T12:56:33.215Z,1.00
2023-05-03T13:01:06.145Z,1.00
2023-05-03T13:03:21.453Z,1.00
2023-05-03T13:07:31.591Z,1.00
2023-05-03T13:10:12.064Z,1.00
2023-05-03T13:12:02.303Z,1.00
2023-05-03T13:14:05.148Z,1.00
2023-05-03T13:16:08.548Z,1.00
2023-05-03T13:18:11.467Z,1.00
2023-05-03T13:20:14.984Z,1.00
2023-05-03T13:22:18.019Z,1.00
2023-05-03T13:24:20.809Z,1.00
2023-05-03T13:26:23.591Z,1.00
2023-05-03T13:28:27.698Z,1.00
2023-05-03T13:30:30.560Z,1.00
2023-05-03T13:32:34.178Z,1.00
2023-05-03T13:34:37.533Z,1.00
2023-05-03T13:36:40.373Z,1.00
2023-05-03T13:38:43.126Z,1.00
2023-05-03T13:40:46.016Z,1.00
2023-05-03T13:42:48.783Z,1.00
2023-05-03T13:44:53.020Z,1.00
2023-05-03T13:46:56.387Z,1.00
2023-05-03T13:48:59.274Z,1.00
2023-05-03T13:51:03.043Z,1.00
2023-05-03T13:53:05.886Z,1.00
2023-05-03T13:55:09.346Z,1.00
2023-05-03T13:57:12.120Z,1.00
2023-05-03T13:59:15.138Z,1.00
2023-05-03T14:01:19.303Z,1.00
2023-05-03T14:03:22.542Z,1.00
2023-05-03T14:05:25.611Z,1.00
2023-05-03T14:07:28.374Z,1.00
2023-05-03T14:09:31.433Z,1.00
2023-05-03T14:11:34.365Z,1.00
2023-05-03T14:13:53.848Z,1.00
2023-05-03T14:15:59.005Z,1.00
2023-05-03T14:18:05.647Z,1.00
2023-05-03T14:20:11.979Z,1.00
2023-05-03T14:22:14.769Z,1.00
2023-05-03T14:24:17.556Z,1.00
2023-05-03T14:26:21.949Z,1.00
2023-05-03T14:28:24.739Z,1.00
2023-05-03T14:30:27.536Z,1.00
2023-05-03T14:32:30.735Z,1.00
2023-05-03T14:34:34.914Z,1.00
2023-05-03T14:36:39.609Z,1.00
2023-05-03T14:38:42.412Z,1.00
2023-05-03T14:40:45.249Z,1.00
2023-05-03T14:42:48.770Z,1.00
2023-05-03T14:44:51.571Z,1.00
2023-05-03T14:46:58.564Z,1.00
2023-05-03T14:49:02.034Z,1.00
2023-05-03T14:51:06.932Z,1.00
2023-05-03T14:53:09.705Z,1.00
2023-05-03T14:55:12.575Z,1.00
2023-05-03T14:57:15.334Z,1.00
2023-05-03T14:59:18.111Z,1.00
2023-05-03T15:01:21.198Z,1.00
2023-05-03T15:03:24.600Z,1.00
2023-05-03T15:05:27.531Z,1.00
2023-05-03T15:07:32.289Z,1.00
2023-05-03T15:09:35.129Z,1.00
2023-05-03T15:11:38.119Z,1.00
2023-05-03T15:13:40.897Z,1.00
2023-05-03T15:15:44.281Z,1.00
2023-05-03T15:17:47.285Z,1.00
2023-05-03T15:19:50.508Z,1.00
2023-05-03T15:21:53.362Z,1.00
2023-05-03T15:23:58.054Z,1.00
2023-05-03T15:26:01.523Z,1.00
2023-05-03T15:28:04.827Z,1.00
2023-05-03T15:30:08.977Z,1.00
2023-05-03T15:32:11.756Z,1.00
2023-05-03T15:34:14.559Z,1.00
2023-05-03T15:36:17.561Z,1.00
2023-05-03T15:38:20.398Z,1.00
2023-05-03T15:40:26.697Z,1.00
2023-05-03T15:42:29.919Z,1.00
2023-05-03T15:44:32.695Z,1.00
2023-05-03T15:46:36.106Z,1.00
2023-05-03T15:48:39.217Z,1.00
2023-05-03T15:50:42.021Z,1.00
2023-05-03T15:52:46.280Z,1.00
2023-05-03T15:54:49.084Z,1.00
2023-05-03T15:56:53.728Z,1.00
2023-05-03T15:58:56.571Z,1.00
2023-05-03T16:00:59.972Z,1.00
2023-05-03T16:03:02.797Z,1.00
2023-05-03T16:05:06.149Z,1.00
2023-05-03T16:07:08.950Z,1.00
2023-05-03T16:09:12.761Z,1.00
2023-05-03T16:11:15.863Z,1.00
2023-05-03T16:13:20.359Z,1.00
2023-05-03T16:15:23.351Z,1.00
2023-05-03T16:17:26.319Z,1.00
2023-05-03T16:19:29.190Z,1.00
2023-05-03T16:21:32.425Z,1.00
2023-05-03T16:23:35.277Z,1.00
2023-05-03T16:25:38.069Z,1.00
2023-05-03T16:27:41.023Z,1.00
2023-05-03T16:29:45.171Z,1.00
2023-05-03T16:31:47.984Z,1.00
2023-05-03T16:33:50.769Z,1.00
2023-05-03T16:35:53.567Z,1.00
2023-05-03T16:37:56.636Z,1.00
2023-05-03T16:39:59.563Z,1.00
2023-05-03T16:42:02.707Z,1.00
2023-05-03T16:44:06.135Z,1.00
2023-05-03T16:46:10.358Z,1.00
2023-05-03T16:48:13.253Z,1.00
2023-05-03T16:50:17.934Z,1.00
2023-05-03T16:52:20.733Z,1.00
2023-05-03T16:54:23.777Z,1.00
2023-05-03T16:56:27.027Z,1.00
2023-05-03T16:58:29.821Z,1.00
2023-05-03T17:00:32.881Z,1.00
2023-05-03T17:02:37.099Z,1.00
2023-05-03T17:04:39.912Z,1.00
2023-05-03T17:06:42.683Z,1.00
2023-05-03T17:08:45.768Z,1.00
2023-05-03T17:10:48.619Z,1.00
2023-05-03T17:12:52.514Z,1.00
2023-05-03T17:14:55.611Z,1.00
2023-05-03T17:16:58.419Z,1.00
2023-05-03T17:19:02.573Z,1.00
2023-05-03T17:21:05.815Z,1.00
2023-05-03T17:23:09.574Z,1.00
2023-05-03T17:25:12.525Z,1.00
2023-05-03T17:27:15.288Z,1.00
2023-05-03T17:29:18.183Z,1.00
2023-05-03T17:31:20.976Z,1.00
2023-05-03T17:33:24.563Z,1.00
2023-05-03T17:35:28.785Z,1.00
2023-05-03T17:37:31.585Z,1.00
2023-05-03T17:39:34.601Z,1.00
2023-05-03T17:41:38.154Z,1.00
2023-05-03T17:43:41.489Z,1.00
2023-05-03T17:45:44.655Z,1.00
2023-05-03T17:47:47.635Z,1.00
2023-05-03T17:49:50.623Z,1.00
2023-05-03T17:51:54.740Z,1.00
2023-05-03T17:53:57.523Z,1.00
2023-05-03T17:56:00.348Z,1.00
2023-05-03T17:58:03.229Z,1.00
2023-05-03T18:00:11.097Z,1.00
2023-05-03T18:02:14.290Z,1.00
2023-05-03T18:04:17.152Z,1.00
2023-05-03T18:06:19.929Z,1.00
2023-05-03T18:08:24.030Z,1.00
2023-05-03T18:10:26.875Z,1.00
2023-05-03T18:12:29.739Z,1.00
2023-05-03T18:14:33.860Z,1.00
2023-05-03T18:16:36.984Z,1.00
2023-05-03T18:18:40.089Z,1.00
2023-05-03T18:20:42.854Z,1.00
2023-05-03T18:22:45.640Z,1.00
2023-05-03T18:24:53.950Z,1.00
2023-05-03T18:26:57.053Z,1.00
2023-05-03T18:28:59.852Z,1.00
2023-05-03T18:31:03.809Z,1.00
2023-05-03T18:33:06.705Z,1.00
2023-05-03T18:35:10.284Z,1.00
2023-05-03T18:37:13.488Z,1.00
2023-05-03T18:39:17.184Z,1.00
2023-05-03T18:41:21.452Z,1.00
2023-05-03T18:43:24.267Z,1.00
2023-05-03T18:45:27.096Z,1.00
2023-05-03T18:47:29.887Z,1.00
2023-05-03T18:49:32.689Z,1.00
2023-05-03T18:51:35.455Z,1.00
2023-05-03T18:53:38.217Z,1.00
2023-05-03T18:55:41.553Z,1.00
2023-05-03T18:57:45.694Z,1.00
2023-05-03T18:59:59.449Z,1.00
2023-05-03T19:02:03.869Z,1.00
2023-05-03T19:04:07.873Z,1.00
2023-05-03T19:06:11.365Z,1.00
2023-05-03T19:08:14.487Z,1.00
2023-05-03T19:10:17.369Z,1.00
2023-05-03T19:12:20.216Z,1.00
2023-05-03T19:14:24.347Z,1.00
2023-05-03T19:16:27.821Z,1.00
2023-05-03T19:18:30.913Z,1.00
2023-05-03T19:20:33.690Z,1.00
2023-05-03T19:22:36.442Z,1.00
2023-05-03T19:24:39.913Z,1.00
2023-05-03T19:26:42.692Z,1.00
2023-05-03T19:28:45.791Z,1.00
2023-05-03T19:30:51.698Z,1.00
2023-05-03T19:32:54.573Z,1.00
2023-05-03T19:34:57.722Z,1.00
2023-05-03T19:37:00.630Z,1.00
2023-05-03T19:39:03.538Z,1.00
2023-05-03T19:41:09.452Z,1.00
2023-05-03T19:43:12.213Z,1.00
2023-05-03T19:45:15.102Z,1.00
2023-05-03T19:47:19.232Z,1.00
2023-05-03T19:49:23.871Z,1.00
2023-05-03T19:51:27.789Z,1.00
2023-05-03T19:53:31.390Z,1.00
2023-05-03T19:55:34.238Z,1.00
2023-05-03T19:57:37.061Z,1.00
2023-05-03T19:59:39.866Z,1.00
2023-05-03T20:01:43.020Z,1.00
2023-05-03T20:03:47.320Z,1.00
2023-05-03T20:05:50.210Z,1.00
2023-05-03T20:07:53.104Z,1.00
2023-05-03T20:09:55.904Z,1.00
2023-05-03T20:11:59.612Z,1.00
2023-05-03T20:14:02.379Z,1.00
2023-05-03T20:16:06.074Z,1.00
2023-05-03T20:18:09.116Z,1.00
2023-05-03T20:20:15.162Z,1.00
2023-05-03T20:22:17.920Z,1.00
2023-05-03T20:24:21.436Z,1.00
2023-05-03T20:26:24.322Z,1.00
2023-05-03T20:28:27.524Z,1.00
2023-05-03T20:30:31.728Z,1.00
2023-05-03T20:32:36.283Z,1.00
2023-05-03T20:34:40.159Z,1.00
2023-05-03T20:36:44.269Z,1.00
2023-05-03T20:38:47.074Z,1.00
2023-05-03T20:40:50.962Z,1.00
2023-05-03T20:42:53.727Z,1.00
2023-05-03T20:44:56.522Z,1.00
2023-05-03T20:46:59.299Z,1.00
2023-05-03T20:49:02.314Z,1.00
2023-05-03T20:51:05.159Z,1.00
2023-05-03T20:53:09.280Z,1.00
2023-05-03T20:55:12.064Z,1.00
2023-05-03T20:57:15.854Z,1.00
2023-05-03T20:59:18.644Z,1.00
2023-05-03T21:01:22.640Z,1.00
2023-05-03T21:03:26.127Z,1.00
2023-05-03T21:05:29.296Z,1.00
2023-05-03T21:07:34.178Z,1.00
2023-05-03T21:09:39.034Z,1.00
2023-05-03T21:11:42.417Z,1.00
2023-05-03T21:13:45.264Z,1.00
2023-05-03T21:15:48.099Z,1.00
2023-05-03T21:17:50.909Z,1.00
2023-05-03T21:19:54.125Z,1.00
2023-05-03T21:21:57.198Z,1.00
2023-05-03T21:23:59.974Z,1.00
2023-05-03T21:26:04.261Z,1.00
2023-05-03T21:28:07.050Z,1.00
2023-05-03T21:30:10.874Z,1.00
2023-05-03T21:32:13.660Z,1.00
2023-05-03T21:34:16.425Z,1.40
2023-05-03T21:36:19.222Z,1.00
2023-05-03T21:38:22.094Z,1.00
2023-05-03T21:40:24.894Z,1.00
2023-05-03T21:42:29.007Z,1.80
2023-05-03T21:44:31.800Z,1.00
2023-05-03T21:46:34.592Z,1.00
2023-05-03T21:48:37.502Z,1.00
2023-05-03T21:50:40.317Z,1.00
2023-05-03T21:52:43.122Z,1.00
2023-05-03T21:54:46.315Z,1.00
2023-05-03T21:56:49.144Z,1.00
2023-05-03T21:58:53.439Z,1.00
2023-05-03T22:00:56.219Z,1.00
2023-05-03T22:02:59.137Z,1.00
2023-05-03T22:05:02.020Z,3.70
2023-05-03T22:07:04.791Z,3.30
2023-05-03T22:09:08.704Z,3.70
2023-05-03T22:11:11.445Z,5.60
2023-05-03T22:13:14.319Z,7.80
2023-05-03T22:15:19.652Z,4.40
2023-05-03T22:17:22.889Z,2.80
2023-05-03T22:19:25.707Z,8.60
2023-05-03T22:21:28.420Z,12.50
2023-05-03T22:23:31.253Z,15.70
2023-05-03T22:25:34.122Z,14.10
2023-05-03T22:27:37.334Z,13.80
2023-05-03T22:29:40.098Z,13.50
2023-05-03T22:31:44.313Z,17.20
2023-05-03T22:33:48.762Z,19.10
2023-05-03T22:35:52.252Z,21.10
2023-05-03T22:37:55.033Z,21.50
2023-05-03T22:39:57.784Z,21.70
2023-05-03T22:42:00.732Z,28.50
2023-05-03T22:44:03.492Z,28.50
2023-05-03T22:46:06.513Z,28.50
2023-05-03T22:48:10.665Z,28.50
2023-05-03T22:50:13.442Z,34.00
2023-05-03T22:52:16.148Z,40.00
2023-05-03T22:54:18.874Z,43.60
2023-05-03T22:56:21.591Z,45.80
2023-05-03T22:58:24.447Z,43.80
2023-05-03T23:00:27.264Z,42.20
2023-05-03T23:02:30.120Z,40.40
2023-05-03T23:04:34.360Z,39.00
2023-05-03T23:06:37.344Z,37.20
2023-05-03T23:08:40.067Z,37.60
2023-05-03T23:10:42.883Z,41.60
2023-05-03T23:12:45.928Z,42.90
2023-05-03T23:14:48.800Z,42.80
2023-05-03T23:16:51.594Z,45.90
2023-05-03T23:18:55.775Z,48.70
2023-05-03T23:21:00.006Z,52.10
2023-05-03T23:23:02.766Z,59.00
2023-05-03T23:25:06.374Z,68.30
2023-05-03T23:27:10.756Z,76.90
2023-05-03T23:29:13.994Z,83.60
2023-05-03T23:31:17.316Z,87.90
2023-05-03T23:33:20.442Z,91.60
2023-05-03T23:35:23.816Z,91.60
2023-05-03T23:37:27.895Z,91.60
2023-05-03T23:39:30.662Z,84.40
2023-05-03T23:41:34.047Z,79.80
2023-05-03T23:43:36.957Z,81.60
2023-05-03T23:45:39.723Z,86.40
2023-05-03T23:47:42.518Z,91.50
2023-05-03T23:49:45.354Z,91.60
2023-05-03T23:51:48.115Z,94.70
2023-05-03T23:53:52.804Z,97.90
2023-05-03T23:55:55.583Z,98.60
2023-05-03T23:57:58.410Z,99.90
